Thunder radar more information blitzortung!


Radar de pluja more information rain snow radar


Visita la nostra xarxa de llocs de meteo:

Template documentation
and downloads

And another site



No particular awareness of the weather is required.    There are no Weather-warnings

Pagina Historial Weather Underground text

Diari Resum May 22, 2017 Unitats:  Imperial    Mètric   Tant
« Previous Dia
SegĂźent Dia »
Diari Setmana Mensual Anual Personalitzada
  Maxima: Minima: Media:
Temperatura: 83.3 °F 60.1 °F 72.9 °F
Punt de rosada: 56.7 °F 47.8 °F 51.8 °F
Humitat: 76 % 36 % 49 %
Wind Speed: 12.7 mph 0 mph 4.5 mph
RĂ fegues de vent: 12.7 mph - -
Vent:- - SSW
Pression baro: 30.1 in 30 in -
Precipitacions: 0 in    
Historical Graphs
 
 
Dades de taula per May 22, 2017
Temps Temperatura Punt de rosada Pression baro Vent Wind Speed RĂ fegues de vent Humitat Rainfall Rate (Hourly)
00:01 62.6 °F 49.5 °F 30.1 in SW 2.3 mph 2.3 mph 62 % 0 in
00:06 62.4 °F 49.6 °F 30.1 in SW 1.4 mph 1.4 mph 63 % 0 in
00:11 62.4 °F 50.2 °F 30.1 in Calm     64 % 0 in
00:16 62.4 °F 50.2 °F 30.1 in SW 1.2 mph   64 % 0 in
04:40 68 °F 55.8 °F 30.1 in SW 2 mph 2 mph 65 % 0 in
04:50 69.3 °F 56.7 °F 30.1 in SW 1 mph 3 mph 64 % 0 in
04:55 68.7 °F 55.6 °F 30.1 in SSW 3 mph 6 mph 63 % 0 in
05:05 69.6 °F 55.6 °F 30.1 in SSW 2 mph 6 mph 61 % 0 in
05:15 69.8 °F 54.3 °F 30.1 in SSW 3 mph 5 mph 58 % 0 in
05:25 70.2 °F 54.7 °F 30.1 in SSW 2 mph 8 mph 58 % 0 in
10:33 71.4 °F 54.9 °F 30.1 in SSW 4.6 mph 4.6 mph 56 % 0 in
10:38 71.8 °F 54.1 °F 30.1 in SW 4.6 mph 4.6 mph 54 % 0 in
10:43 73 °F 55.4 °F 30.1 in SW 4.6 mph 4.6 mph 54 % 0 in
10:48 72.7 °F 55 °F 30.1 in West 4.6 mph 4.6 mph 54 % 0 in
10:53 73.6 °F 54.9 °F 30.1 in SW 5.4 mph 5.4 mph 52 % 0 in
10:58 74.3 °F 55 °F 30.1 in SSW 5.8 mph 5.8 mph 51 % 0 in
11:03 75 °F 55 °F 30.1 in WSW 3.5 mph 3.5 mph 50 % 0 in
11:08 74.3 °F 54.5 °F 30.1 in SW 6.9 mph 6.9 mph 50 % 0 in
11:13 74.1 °F 53.2 °F 30.1 in SSW 8.1 mph 8.1 mph 48 % 0 in
11:18 74.5 °F 52.9 °F 30.1 in SW 5.8 mph 5.8 mph 47 % 0 in
11:23 74.7 °F 53.1 °F 30.1 in SSW 5.8 mph 5.8 mph 47 % 0 in
11:28 75.7 °F 54.1 °F 30.1 in SW 4.9 mph 4.9 mph 47 % 0 in
11:33 75.4 °F 53.8 °F 30.1 in ESE 5.8 mph 5.8 mph 47 % 0 in
11:38 75.4 °F 53.8 °F 30.1 in SSE 5.8 mph 5.8 mph 47 % 0 in
11:43 75.9 °F 53.6 °F 30.1 in South 8.1 mph 8.1 mph 46 % 0 in
11:48 75.6 °F 53.2 °F 30.1 in WSW 4.6 mph 4.6 mph 46 % 0 in
11:53 77 °F 54.7 °F 30.1 in WSW 3.5 mph 3.5 mph 46 % 0 in
11:58 75.9 °F 53.6 °F 30.1 in SW 8.1 mph 8.1 mph 46 % 0 in
12:03 75.9 °F 54.1 °F 30.1 in WSW 4.5 mph 4.5 mph 47 % 0 in
12:08 75.9 °F 54.1 °F 30.1 in SSW 9.2 mph 9.2 mph 47 % 0 in
12:13 76.5 °F 55.2 °F 30.1 in SW 5.8 mph 5.8 mph 48 % 0 in
12:18 75.6 °F 54 °F 30.1 in SW 9.2 mph 9.2 mph 47 % 0 in
12:23 76.1 °F 54.3 °F 30.1 in South 9.2 mph 9.2 mph 47 % 0 in
12:28 77 °F 54.7 °F 30.1 in SW 5.8 mph 5.8 mph 46 % 0 in
12:33 77.7 °F 55.2 °F 30.1 in West 7.4 mph 7.4 mph 46 % 0 in
12:38 76.6 °F 53.8 °F 30.1 in West 8.1 mph 8.1 mph 45 % 0 in
12:43 76.8 °F 54 °F 30.1 in SW 8.1 mph 8.1 mph 45 % 0 in
12:48 77.2 °F 54.1 °F 30.1 in SSW 9.8 mph 9.8 mph 45 % 0 in
12:53 76.8 °F 54 °F 30.1 in SW 5.8 mph 5.8 mph 45 % 0 in
12:54 77 °F 53.4 °F 30.1 in SW 5.8 mph 5.8 mph 44 % 0 in
12:59 77.5 °F 53.2 °F 30.1 in SSW 8.1 mph 8.1 mph 43 % 0 in
13:04 78.1 °F 54.3 °F 30.1 in SSE 6 mph 6 mph 44 % 0 in
13:09 77.5 °F 54 °F 30.1 in SSW 9.2 mph 9.2 mph 44 % 0 in
13:14 77 °F 53.4 °F 30.1 in SW 8.1 mph 8.1 mph 44 % 0 in
13:19 77.5 °F 54 °F 30.1 in SW 6.9 mph 6.9 mph 44 % 0 in
13:24 77.4 °F 53.8 °F 30.1 in SW 6.9 mph 6.9 mph 44 % 0 in
13:29 78.1 °F 54.3 °F 30.1 in South 5.8 mph 5.8 mph 44 % 0 in
13:34 79.2 °F 55.4 °F 30.1 in SW 4.3 mph 4.3 mph 44 % 0 in
13:39 79.3 °F 55.6 °F 30.1 in West 5.8 mph 5.8 mph 44 % 0 in
13:44 79.7 °F 55.9 °F 30.1 in WSW 5.8 mph 5.8 mph 44 % 0 in
13:49 79.3 °F 55.6 °F 30.1 in SSW 6.2 mph 6.2 mph 44 % 0 in
13:54 79 °F 55.2 °F 30.1 in WSW 6.9 mph 6.9 mph 44 % 0 in
13:59 79 °F 54.7 °F 30.1 in SSW 5.8 mph 5.8 mph 43 % 0 in
14:04 79 °F 54.7 °F 30.1 in WSW 5.8 mph 5.8 mph 43 % 0 in
14:09 79.7 °F 55.2 °F 30.1 in SSW 6 mph 6 mph 43 % 0 in
14:14 79 °F 54.7 °F 30.1 in SW 6.2 mph 6.2 mph 43 % 0 in
14:19 79.5 °F 55 °F 30.1 in NW 5.8 mph 5.8 mph 43 % 0 in
14:24 79.7 °F 55.2 °F 30.1 in SW 4.6 mph 4.6 mph 43 % 0 in
14:29 79.7 °F 55.2 °F 30.1 in WSW 5.6 mph 5.6 mph 43 % 0 in
14:34 80.4 °F 55.2 °F 30.1 in West 8.1 mph 8.1 mph 42 % 0 in
14:39 80.1 °F 54.9 °F 30.1 in East 6.9 mph 6.9 mph 42 % 0 in
14:44 79.9 °F 54.7 °F 30.1 in SW 5.8 mph 5.8 mph 42 % 0 in
14:49 80.8 °F 54.9 °F 30.1 in SSW 6.9 mph 6.9 mph 41 % 0 in
14:54 81 °F 55 °F 30.1 in WSW 6.2 mph 6.2 mph 41 % 0 in
14:59 80.1 °F 54.9 °F 30.1 in WSW 5.8 mph 5.8 mph 42 % 0 in
15:04 79.9 °F 54.1 °F 30.1 in WSW 8.1 mph 8.1 mph 41 % 0 in
15:09 81.3 °F 55.4 °F 30.1 in SSE 5.8 mph 5.8 mph 41 % 0 in
15:14 81.9 °F 55.9 °F 30.1 in SSE 4.6 mph 4.6 mph 41 % 0 in
15:19 81 °F 54.3 °F 30.1 in WSW 8.1 mph 8.1 mph 40 % 0 in
15:24 80.6 °F 54 °F 30.1 in SW 5.9 mph 5.9 mph 40 % 0 in
15:29 80.8 °F 54.1 °F 30.1 in SSW 3.5 mph 3.5 mph 40 % 0 in
15:34 81.1 °F 53.8 °F 30.1 in WSW 6.9 mph 6.9 mph 39 % 0 in
15:39 81.9 °F 54.5 °F 30.1 in SE 2.9 mph 2.9 mph 39 % 0 in
15:44 82 °F 54.7 °F 30.1 in WSW 4.6 mph 4.6 mph 39 % 0 in
15:49 81.7 °F 53.6 °F 30.1 in SSW 6.9 mph 6.9 mph 38 % 0 in
15:54 81 °F 53.1 °F 30.1 in WSW 5.8 mph 5.8 mph 38 % 0 in
15:59 81.5 °F 54.1 °F 30.1 in WSW 6.9 mph 6.9 mph 39 % 0 in
16:04 81.7 °F 53.6 °F 30.1 in WSW 11.5 mph 11.5 mph 38 % 0 in
16:09 81.5 °F 53.4 °F 30.1 in SSE 6.9 mph 6.9 mph 38 % 0 in
16:14 82 °F 54 °F 30.1 in SW 3.5 mph 3.5 mph 38 % 0 in
16:19 82.6 °F 54.3 °F 30.1 in SW 5.8 mph 5.8 mph 38 % 0 in
16:24 82.8 °F 53.8 °F 30 in SW 5.8 mph 5.8 mph 37 % 0 in
16:29 82.6 °F 53.8 °F 30 in SSW 2.3 mph 3.8 mph 37 % 0 in
16:31 83.1 °F 54.1 °F 30 in South 5.8 mph 5.8 mph 37 % 0 in
16:36 83.3 °F 54.3 °F 30 in SW 3.5 mph 3.5 mph 37 % 0 in
16:41 81.3 °F 52.5 °F 30.1 in SSW 8.1 mph 8.1 mph 37 % 0 in
16:46 81.1 °F 52.3 °F 30.1 in SW 9.2 mph 9.2 mph 37 % 0 in
16:51 81 °F 52.2 °F 30.1 in WSW 8.1 mph 8.1 mph 37 % 0 in
16:56 80.6 °F 51.3 °F 30.1 in SW 11.5 mph 11.5 mph 36 % 0 in
17:01 80.1 °F 51.4 °F 30.1 in SSW 5.8 mph 5.8 mph 37 % 0 in
17:06 80.2 °F 51.6 °F 30.1 in SW 6.9 mph 6.9 mph 37 % 0 in
17:11 80.1 °F 51.4 °F 30.1 in SSW 8.1 mph 8.1 mph 37 % 0 in
17:16 81.3 °F 51.8 °F 30.1 in WSW 5.8 mph 5.8 mph 36 % 0 in
17:21 80.4 °F 51.8 °F 30.1 in SW 10.4 mph 10.4 mph 37 % 0 in
17:26 79.7 °F 51.1 °F 30.1 in SSE 12.7 mph 12.7 mph 37 % 0 in
17:31 79.3 °F 50.7 °F 30.1 in SW 10.4 mph 10.4 mph 37 % 0 in
17:36 78.6 °F 50.2 °F 30.1 in SSW 9.2 mph 9.2 mph 37 % 0 in
17:42 78.6 °F 50.2 °F 30 in WSW 10.4 mph 10.4 mph 37 % 0 in
17:47 77.9 °F 49.5 °F 30 in WSW 9.2 mph 9.2 mph 37 % 0 in
17:52 77.5 °F 49.3 °F 30 in SSW 8.1 mph 8.1 mph 37 % 0 in
17:57 77.7 °F 49.5 °F 30.1 in WSW 6.9 mph 6.9 mph 37 % 0 in
18:02 77.5 °F 49.3 °F 30.1 in West 9.2 mph 9.2 mph 37 % 0 in
18:07 77.4 °F 48.9 °F 30.1 in SW 5.8 mph 5.8 mph 37 % 0 in
18:12 76.8 °F 49.3 °F 30.1 in SW 6.9 mph 6.9 mph 38 % 0 in
18:17 76.5 °F 48.9 °F 30.1 in South 6.9 mph 6.9 mph 38 % 0 in
18:22 76.6 °F 49.1 °F 30.1 in WSW 5.9 mph 5.9 mph 38 % 0 in
18:27 76.3 °F 48.7 °F 30.1 in SW 10.4 mph 10.4 mph 38 % 0 in
18:32 76.5 °F 48.9 °F 30.1 in SSE 5.8 mph 5.8 mph 38 % 0 in
18:37 76.5 °F 48.9 °F 30 in WSW 9.2 mph 9.2 mph 38 % 0 in
18:42 75.7 °F 48.9 °F 30 in SW 7.8 mph 7.8 mph 39 % 0 in
18:47 75.9 °F 49.3 °F 30 in WSW 6.9 mph 6.9 mph 39 % 0 in
18:52 76.1 °F 49.3 °F 30 in SW 6.4 mph 6.4 mph 39 % 0 in
18:57 75.9 °F 49.3 °F 30 in SW 4.6 mph 4.6 mph 39 % 0 in
19:02 76.1 °F 49.3 °F 30 in WSW 4.6 mph 4.6 mph 39 % 0 in
19:07 75.9 °F 49.3 °F 30.1 in SSW 5.8 mph 5.8 mph 39 % 0 in
19:12 75.7 °F 49.6 °F 30.1 in SW 4.9 mph 4.9 mph 40 % 0 in
19:17 75.4 °F 48.7 °F 30.1 in SW 5.8 mph 5.8 mph 39 % 0 in
19:22 75.4 °F 49.5 °F 30 in SW 3.5 mph 3.5 mph 40 % 0 in
19:25 62.8 °F 49.6 °F 30.1 in WSW 1 mph 2 mph 62 % 0 in
19:27 75 °F 49.1 °F 30 in SW 4.6 mph 4.6 mph 40 % 0 in
19:32 74.8 °F 48.9 °F 30 in SSW 3.5 mph 3.5 mph 40 % 0 in
19:35 62.6 °F 49.8 °F 30.1 in WSW 1 mph 2 mph 63 % 0 in
19:37 74.8 °F 48.9 °F 30 in SW 5.9 mph 5.9 mph 40 % 0 in
19:43 74.5 °F 48.6 °F 30 in SW 6.9 mph 6.9 mph 40 % 0 in
19:45 62.2 °F 49.8 °F 30.1 in WSW 2 mph 3 mph 64 % 0 in
19:48 74.3 °F 48.4 °F 30 in WSW 3.5 mph 3.5 mph 40 % 0 in
19:53 74.1 °F 48.2 °F 30 in WSW 4.9 mph 4.9 mph 40 % 0 in
19:55 62.1 °F 49.6 °F 30.1 in Calm   1 mph 64 % 0 in
19:58 73.8 °F 47.8 °F 30 in SW 3.5 mph 3.5 mph 40 % 0 in
20:03 73.6 °F 47.8 °F 30 in WSW 2.3 mph 2.3 mph 40 % 0 in
20:05 61.9 °F 49.6 °F 30.1 in Calm     64 % 0 in
20:08 73.6 °F 47.8 °F 30 in WSW 2.3 mph   40 % 0 in
20:13 73.6 °F 47.8 °F 30 in WNW 2.3 mph 2.3 mph 40 % 0 in
20:15 61.9 °F 49.6 °F 30.1 in Calm     64 % 0 in
20:18 73 °F 47.8 °F 30 in WSW 3.5 mph 3.5 mph 41 % 0 in
20:20 73 °F 47.8 °F 30 in West 2.3 mph 2.3 mph 41 % 0 in
20:25 72.9 °F 47.8 °F 30 in Calm   2 mph 41 % 0 in
20:26 72.5 °F 48 °F 30 in SE 2.3 mph 2.3 mph 42 % 0 in
20:29 71.8 °F 48 °F 30 in East 4.6 mph 4.6 mph 43 % 0 in
20:31 71.4 °F 48.4 °F 30 in East 4.6 mph 4.6 mph 44 % 0 in
20:35 61.7 °F 50.2 °F 30.1 in ENE 1 mph 2 mph 66 % 0 in
20:36 70.9 °F 48.6 °F 30 in ESE 5.8 mph 5.8 mph 45 % 0 in
20:41 70.5 °F 48.7 °F 30 in East 5.8 mph 5.8 mph 46 % 0 in
20:42 70.5 °F 48.7 °F 30 in East 5.8 mph 5.8 mph 46 % 0 in
20:45 61.2 °F 49.6 °F 30.1 in Calm   1 mph 66 % 0 in
20:47 70.2 °F 48.9 °F 30 in ESE 4.6 mph 4.6 mph 47 % 0 in
20:52 69.8 °F 49.3 °F 30 in ESE 4.6 mph 4.6 mph 48 % 0 in
20:55 61.2 °F 50.2 °F 30.1 in Calm     67 % 0 in
20:57 69.4 °F 49.5 °F 30 in ENE 3.5 mph 3.5 mph 49 % 0 in
21:02 69.1 °F 49.6 °F 30 in NE 2.3 mph 2.3 mph 50 % 0 in
21:05 61.3 °F 50.7 °F 30.1 in NE 1 mph 3 mph 68 % 0 in
21:07 68.9 °F 50 °F 30 in ENE 2.4 mph 2.4 mph 51 % 0 in
21:12 68.7 °F 49.8 °F 30 in ENE 3.5 mph 3.5 mph 51 % 0 in
21:15 61 °F 50.7 °F 30.1 in Calm   1 mph 69 % 0 in
21:17 68.5 °F 50.2 °F 30 in ESE 2.4 mph 2.4 mph 52 % 0 in
21:23 68.4 °F 50 °F 30.1 in East 2.3 mph 2.3 mph 52 % 0 in
21:25 60.8 °F 50.5 °F 30.1 in Calm   1 mph 69 % 0 in
21:28 68.4 °F 50 °F 30.1 in SW 1.2 mph 1.2 mph 52 % 0 in
21:33 68.2 °F 49.8 °F 30.1 in WSW 2.3 mph   52 % 0 in
21:35 60.8 °F 51.1 °F 30.1 in Calm     70 % 0 in
21:38 68 °F 49.6 °F 30.1 in Calm     52 % 0 in
21:43 67.8 °F 50.2 °F 30.1 in NNE 2.3 mph 2.3 mph 53 % 0 in
21:45 60.8 °F 51.3 °F 30.1 in Calm     71 % 0 in
21:48 67.8 °F 50.5 °F 30.1 in NNE 2.4 mph 2.4 mph 54 % 0 in
21:53 67.8 °F 50.5 °F 30.1 in NE 3.5 mph 3.5 mph 54 % 0 in
21:55 60.8 °F 51.6 °F 30.1 in NNE 1 mph 1 mph 72 % 0 in
21:58 67.5 °F 50.7 °F 30.1 in ENE 3.5 mph 3.5 mph 55 % 0 in
22:03 67.1 °F 50.4 °F 30.1 in NNE 3.5 mph 3.5 mph 55 % 0 in
22:05 60.8 °F 52.2 °F 30.1 in NE 1 mph 2 mph 73 % 0 in
22:08 66.9 °F 50.7 °F 30.1 in East 2.3 mph 2.3 mph 56 % 0 in
22:13 66.7 °F 50.5 °F 30.1 in NNE 3.5 mph 3.5 mph 56 % 0 in
22:15 60.6 °F 52.3 °F 30.1 in Calm   2 mph 74 % 0 in
22:18 66.6 °F 50.7 °F 30.1 in ENE 2.3 mph 2.3 mph 57 % 0 in
22:23 66.4 °F 50.7 °F 30.1 in NE 2.3 mph 2.3 mph 57 % 0 in
22:25 60.6 °F 52.3 °F 30.1 in Calm   1 mph 74 % 0 in
22:28 66.4 °F 50.7 °F 30.1 in East 2.3 mph 2.3 mph 57 % 0 in
22:33 66.2 °F 50.5 °F 30.1 in West 2.3 mph 2.3 mph 57 % 0 in
22:35 60.6 °F 52.3 °F 30.1 in Calm   1 mph 74 % 0 in
22:38 65.8 °F 50.5 °F 30.1 in SW 2.3 mph 2.3 mph 58 % 0 in
22:43 65.5 °F 50.7 °F 30.1 in WSW 1.2 mph   59 % 0 in
22:45 60.6 °F 52.3 °F 30.1 in NNW 1 mph 2 mph 74 % 0 in
22:48 65.5 °F 50.7 °F 30.1 in Calm     59 % 0 in
22:53 65.3 °F 50.5 °F 30.1 in Calm     59 % 0 in
22:55 60.6 °F 52.5 °F 30.1 in Calm   1 mph 75 % 0 in
22:59 65.3 °F 50.5 °F 30.1 in WSW 1.2 mph   59 % 0 in
23:04 65.3 °F 51.1 °F 30.1 in Calm     60 % 0 in
23:05 60.6 °F 52.5 °F 30.1 in WNW 1 mph 2 mph 75 % 0 in
23:09 65.3 °F 51.1 °F 30.1 in Calm     60 % 0 in
23:14 65.1 °F 50.9 °F 30.1 in Calm     60 % 0 in
23:15 60.4 °F 52.9 °F 30.1 in Calm   1 mph 76 % 0 in
23:19 65.1 °F 51.3 °F 30.1 in Calm     61 % 0 in
23:24 65.1 °F 51.3 °F 30.1 in NNE 1.2 mph 1.2 mph 61 % 0 in
23:25 60.1 °F 52.5 °F 30.1 in Calm   2 mph 76 % 0 in
23:30 64.9 °F 51.3 °F 30.1 in NNW 1.2 mph 1.2 mph 61 % 0 in
23:35 64.9 °F 51.3 °F 30.1 in NE 2 mph   61 % 0 in
23:40 64.9 °F 51.3 °F 30.1 in NNE 2.2 mph   61 % 0 in
23:45 64.8 °F 51.1 °F 30.1 in NE 1 mph 3 mph 61 % 0 in
23:50 64.4 °F 51.1 °F 30.1 in NE 2.3 mph 2.3 mph 62 % 0 in
23:55 64.2 °F 50.9 °F 30.1 in ENE 1.6 mph 1.6 mph 62 % 0 in
Meteo Sesrovires
Elogis d' Weather Underground - 3.5 mb

Guio original per  Jim McMurry - jmcmurry@mwt.net Adaptat per a la plantilla per  Wim van der Kuil - Leuven-Template.eu

Trobareu la nostra informacio del temps tambe a:

Weather Underground

AWEKAS